createdAt,value
2016-06-07T00:00:21.725Z,1001.62
2016-06-07T00:01:21.728Z,1001.59
2016-06-07T00:02:21.747Z,1001.62
2016-06-07T00:04:21.751Z,1001.68
2016-06-07T00:05:21.771Z,1001.62
2016-06-07T00:06:21.773Z,1001.66
2016-06-07T00:07:21.776Z,1001.65
2016-06-07T00:08:21.778Z,1001.69
2016-06-07T00:09:21.781Z,1001.66
2016-06-07T00:10:21.784Z,1001.69
2016-06-07T00:11:21.802Z,1001.65
2016-06-07T00:12:21.805Z,1001.68
2016-06-07T00:13:21.854Z,1001.67
2016-06-07T00:14:21.825Z,1001.7
2016-06-07T00:15:21.828Z,1001.66
2016-06-07T00:16:21.831Z,1001.68
2016-06-07T00:17:21.834Z,1001.65
2016-06-07T00:18:21.851Z,1001.66
2016-06-07T00:19:22.058Z,1001.64
2016-06-07T00:20:21.857Z,1001.68
2016-06-07T00:21:22.017Z,1001.65
2016-06-07T00:22:21.879Z,1001.68
2016-06-07T00:23:21.881Z,1001.68
2016-06-07T00:24:21.899Z,1001.65
2016-06-07T00:25:21.886Z,1001.65
2016-06-07T00:26:21.905Z,1001.67
2016-06-07T00:27:21.907Z,1001.63
2016-06-07T00:28:21.926Z,1001.63
2016-06-07T00:29:21.929Z,1001.63
2016-06-07T00:30:21.931Z,1001.65
2016-06-07T00:31:21.949Z,1001.65
2016-06-07T00:32:21.968Z,1001.66
2016-06-07T00:33:21.955Z,1001.63
2016-06-07T00:34:21.958Z,1001.66
2016-06-07T00:35:21.976Z,1001.63
2016-06-07T00:36:21.963Z,1001.61
2016-06-07T00:37:22.371Z,1001.61
2016-06-07T00:38:22.610Z,1001.57
2016-06-07T00:39:21.987Z,1001.63
2016-06-07T00:40:22.004Z,1001.64
2016-06-07T00:41:22.007Z,1001.68
2016-06-07T00:42:22.010Z,1001.64
2016-06-07T00:43:22.013Z,1001.66
2016-06-07T00:44:22.015Z,1001.64
2016-06-07T00:46:22.021Z,1001.7
2016-06-07T00:47:22.040Z,1001.7
2016-06-07T00:48:22.042Z,1001.68
2016-06-07T00:49:22.045Z,1001.71
2016-06-07T00:50:22.047Z,1001.71
2016-06-07T00:51:22.065Z,1001.74
2016-06-07T00:52:22.084Z,1001.71
2016-06-07T00:53:22.087Z,1001.71
2016-06-07T00:54:22.073Z,1001.7
2016-06-07T00:55:22.092Z,1001.7
2016-06-07T00:56:22.111Z,1001.68
2016-06-07T00:57:22.114Z,1001.7
2016-06-07T00:58:22.116Z,1001.68
2016-06-07T00:59:22.134Z,1001.66
2016-06-07T01:00:22.137Z,1001.63
2016-06-07T01:02:22.142Z,1001.69
2016-06-07T01:03:22.145Z,1001.68
2016-06-07T01:04:22.147Z,1001.67
2016-06-07T01:05:22.166Z,1001.67
2016-06-07T01:06:22.168Z,1001.69
2016-06-07T01:07:22.358Z,1001.68
2016-06-07T01:08:22.393Z,1001.65
2016-06-07T01:09:22.193Z,1001.7
2016-06-07T01:10:22.196Z,1001.65
2016-06-07T01:11:22.213Z,1001.67
2016-06-07T01:12:22.200Z,1001.7
2016-06-07T01:13:22.249Z,1001.71
2016-06-07T01:14:22.440Z,1001.74
2016-06-07T01:15:22.209Z,1001.74
2016-06-07T01:16:22.211Z,1001.76
2016-06-07T01:17:22.229Z,1001.74
2016-06-07T01:18:22.232Z,1001.74
2016-06-07T01:19:22.234Z,1001.76
2016-06-07T01:20:22.237Z,1001.72
2016-06-07T01:21:22.240Z,1001.74
2016-06-07T01:22:22.259Z,1001.76
2016-06-07T01:23:22.261Z,1001.78
2016-06-07T01:24:22.264Z,1001.75
2016-06-07T01:25:22.266Z,1001.8
2016-06-07T01:26:22.270Z,1001.77
2016-06-07T01:27:22.287Z,1001.76
2016-06-07T01:28:22.290Z,1001.73
2016-06-07T01:29:22.292Z,1001.76
2016-06-07T01:30:22.295Z,1001.74
2016-06-07T01:31:22.298Z,1001.74
2016-06-07T01:32:22.317Z,1001.74
2016-06-07T01:33:22.335Z,1001.75
2016-06-07T01:34:22.338Z,1001.76
2016-06-07T01:35:22.324Z,1001.79
2016-06-07T01:36:22.547Z,1001.78
2016-06-07T01:37:22.346Z,1001.79
2016-06-07T01:38:22.349Z,1001.82
2016-06-07T01:39:22.382Z,1001.84
2016-06-07T01:40:22.369Z,1001.86
2016-06-07T01:41:22.372Z,1001.81
2016-06-07T01:42:22.578Z,1001.83
2016-06-07T01:43:22.393Z,1001.8
2016-06-07T01:44:22.379Z,1001.89
2016-06-07T01:45:22.414Z,1001.83
2016-06-07T01:47:22.434Z,1001.79
2016-06-07T01:48:22.410Z,1001.85
2016-06-07T01:49:22.428Z,1001.86
2016-06-07T01:50:22.445Z,1001.87
2016-06-07T01:51:22.479Z,1001.85
2016-06-07T01:52:22.496Z,1001.87
2016-06-07T01:53:22.512Z,1001.82
2016-06-07T01:54:22.520Z,1001.84
2016-06-07T01:55:22.543Z,1001.83
2016-06-07T01:56:22.552Z,1001.81
2016-06-07T01:57:22.559Z,1001.8
2016-06-07T01:58:22.567Z,1001.79
2016-06-07T01:59:22.571Z,1001.8
2016-06-07T02:00:22.591Z,1001.79
2016-06-07T02:01:22.596Z,1001.77
2016-06-07T02:02:22.601Z,1001.78
2016-06-07T02:03:22.605Z,1001.74
2016-06-07T02:04:22.609Z,1001.76
2016-06-07T02:05:22.613Z,1001.76
2016-06-07T02:06:23.397Z,1001.78
2016-06-07T02:07:22.634Z,1001.77
2016-06-07T02:08:22.842Z,1001.78
2016-06-07T02:09:22.845Z,1001.75
2016-06-07T02:10:22.848Z,1001.74
2016-06-07T02:11:22.646Z,1001.71
2016-06-07T02:12:22.666Z,1001.75
2016-06-07T02:13:22.919Z,1001.74
2016-06-07T02:14:22.875Z,1001.68
2016-06-07T02:15:22.674Z,1001.72
2016-06-07T02:16:22.677Z,1001.67
2016-06-07T02:17:22.679Z,1001.64
2016-06-07T02:18:22.699Z,1001.67
2016-06-07T02:19:22.701Z,1001.66
2016-06-07T02:20:22.704Z,1001.7
2016-06-07T02:21:22.706Z,1001.68
2016-06-07T02:22:22.927Z,1001.7
2016-06-07T02:23:22.727Z,1001.66
2016-06-07T02:24:22.746Z,1001.68
2016-06-07T02:25:22.732Z,1001.71
2016-06-07T02:26:22.751Z,1001.71
2016-06-07T02:27:22.754Z,1001.7
2016-06-07T02:29:22.759Z,1001.68
2016-06-07T02:30:22.777Z,1001.73
2016-06-07T02:31:22.795Z,1001.71
2016-06-07T02:32:22.767Z,1001.72
2016-06-07T02:33:22.786Z,1001.74
2016-06-07T02:34:22.789Z,1001.72
2016-06-07T02:35:22.806Z,1001.74
2016-06-07T02:36:23.512Z,1001.73
2016-06-07T02:37:22.827Z,1001.75
2016-06-07T02:38:22.799Z,1001.74
2016-06-07T02:39:22.802Z,1001.7
2016-06-07T02:40:22.820Z,1001.7
2016-06-07T02:41:22.822Z,1001.73
2016-06-07T02:42:22.825Z,1001.69
2016-06-07T02:43:22.828Z,1001.68
2016-06-07T02:44:22.830Z,1001.71
2016-06-07T02:45:22.833Z,1001.69
2016-06-07T02:46:22.836Z,1001.73
2016-06-07T02:47:22.854Z,1001.75
2016-06-07T02:48:22.857Z,1001.76
2016-06-07T02:49:22.859Z,1001.75
2016-06-07T02:50:22.863Z,1001.77
2016-06-07T02:51:22.866Z,1001.72
2016-06-07T02:52:22.882Z,1001.76
2016-06-07T02:53:22.886Z,1001.77
2016-06-07T02:54:22.888Z,1001.75
2016-06-07T02:55:22.891Z,1001.82
2016-06-07T02:56:22.894Z,1001.81
2016-06-07T02:57:22.912Z,1001.82
2016-06-07T02:58:22.915Z,1001.83
2016-06-07T02:59:22.918Z,1001.81
2016-06-07T03:00:23.124Z,1001.82
2016-06-07T03:04:22.962Z,1001.75
2016-06-07T03:05:22.965Z,1001.76
2016-06-07T03:06:23.077Z,1001.78
2016-06-07T03:07:22.955Z,1001.74
2016-06-07T03:08:22.958Z,1001.73
2016-06-07T03:09:22.961Z,1001.72
2016-06-07T03:10:23.166Z,1001.75
2016-06-07T03:11:22.981Z,1001.74
2016-06-07T03:12:22.983Z,1001.77
2016-06-07T03:13:23.033Z,1001.76
2016-06-07T03:14:22.989Z,1001.76
2016-06-07T03:15:22.991Z,1001.74
2016-06-07T03:16:23.010Z,1001.73
2016-06-07T03:17:23.013Z,1001.75
2016-06-07T03:18:23.016Z,1001.77
2016-06-07T03:19:23.019Z,1001.76
2016-06-07T03:20:23.037Z,1001.8
2016-06-07T03:21:23.040Z,1001.81
2016-06-07T03:22:23.043Z,1001.83
2016-06-07T03:23:23.060Z,1001.85
2016-06-07T03:24:23.048Z,1001.88
2016-06-07T03:25:23.051Z,1001.88
2016-06-07T03:26:23.054Z,1001.9
2016-06-07T03:27:23.056Z,1001.87
2016-06-07T03:28:23.074Z,1001.93
2016-06-07T03:29:23.279Z,1001.89
2016-06-07T03:30:23.079Z,1001.9
2016-06-07T03:31:23.098Z,1001.88
2016-06-07T03:32:23.101Z,1001.9
2016-06-07T03:33:23.290Z,1001.92
2016-06-07T03:34:23.106Z,1001.88
2016-06-07T03:35:23.123Z,1001.88
2016-06-07T03:38:23.116Z,1001.92
2016-06-07T03:39:23.150Z,1001.91
2016-06-07T03:40:23.137Z,1001.94
2016-06-07T03:41:23.140Z,1001.93
2016-06-07T03:42:23.142Z,1001.99
2016-06-07T03:43:23.145Z,1002.01
2016-06-07T03:44:23.148Z,1002
2016-06-07T03:45:23.166Z,1002
2016-06-07T03:46:23.169Z,1001.98
2016-06-07T03:47:23.188Z,1001.97
2016-06-07T03:48:23.393Z,1001.97
2016-06-07T03:49:23.193Z,1002
2016-06-07T03:50:23.211Z,1001.99
2016-06-07T03:51:23.355Z,1002.02
2016-06-07T03:52:23.201Z,1002.03
2016-06-07T03:53:23.204Z,1002.02
2016-06-07T03:54:23.207Z,1002.04
2016-06-07T03:55:23.209Z,1002.06
2016-06-07T03:56:23.212Z,1002
2016-06-07T03:57:23.229Z,1002.03
2016-06-07T03:58:23.232Z,1002.01
2016-06-07T03:59:23.235Z,1002.02
2016-06-07T04:00:23.238Z,1002.02
2016-06-07T04:01:23.273Z,1002.04
2016-06-07T04:02:23.259Z,1002.02
2016-06-07T04:03:23.262Z,1002
2016-06-07T04:04:23.467Z,1002
2016-06-07T04:05:23.267Z,1001.99
2016-06-07T04:06:23.270Z,1002.04
2016-06-07T04:07:23.289Z,1002.02
2016-06-07T04:08:23.322Z,1002.01
2016-06-07T04:09:23.294Z,1002.03
2016-06-07T04:10:23.297Z,1002.06
2016-06-07T04:11:23.314Z,1002.04
2016-06-07T04:12:23.520Z,1002.07
2016-06-07T04:13:23.383Z,1002.07
2016-06-07T04:14:23.323Z,1002.09
2016-06-07T04:15:23.325Z,1002.07
2016-06-07T04:16:23.327Z,1002.08
2016-06-07T04:17:23.347Z,1002.07
2016-06-07T04:18:23.350Z,1002.07
2016-06-07T04:19:23.367Z,1002.09
2016-06-07T04:20:23.354Z,1002.09
2016-06-07T04:21:23.388Z,1002.1
2016-06-07T04:22:23.750Z,1002.12
2016-06-07T04:23:23.816Z,1002.11
2016-06-07T04:24:23.616Z,1002.13
2016-06-07T04:25:23.430Z,1002.16
2016-06-07T04:26:23.401Z,1002.16
2016-06-07T04:27:23.405Z,1002.17
2016-06-07T04:28:23.610Z,1002.17
2016-06-07T04:29:23.426Z,1002.2
2016-06-07T04:30:23.428Z,1002.16
2016-06-07T04:31:23.635Z,1002.16
2016-06-07T04:32:23.434Z,1002.18
2016-06-07T04:33:23.654Z,1002.16
2016-06-07T04:34:23.455Z,1002.17
2016-06-07T04:35:23.659Z,1002.16
2016-06-07T04:36:23.663Z,1002.15
2016-06-07T04:37:23.994Z,1002.12
2016-06-07T04:38:23.497Z,1002.14
2016-06-07T04:39:23.483Z,1002.11
2016-06-07T04:40:23.487Z,1002.11
2016-06-07T04:41:23.505Z,1002.1
2016-06-07T04:42:23.508Z,1002.07
2016-06-07T04:43:23.541Z,1002.07
2016-06-07T04:44:23.514Z,1002.11
2016-06-07T04:45:23.515Z,1002.12
2016-06-07T04:46:23.533Z,1002.11
2016-06-07T04:47:23.739Z,1002.15
2016-06-07T04:48:23.555Z,1002.17
2016-06-07T04:49:23.542Z,1002.14
2016-06-07T04:50:23.560Z,1002.14
2016-06-07T04:51:23.563Z,1002.14
2016-06-07T04:52:23.565Z,1002.14
2016-06-07T04:53:23.583Z,1002.12
2016-06-07T04:54:23.790Z,1002.12
2016-06-07T04:55:23.605Z,1002.12
2016-06-07T04:56:23.591Z,1002.17
2016-06-07T04:57:23.626Z,1002.17
2016-06-07T04:58:23.613Z,1002.19
2016-06-07T04:59:23.616Z,1002.16
2016-06-07T05:00:23.868Z,1002.15
2016-06-07T05:01:23.637Z,1002.21
2016-06-07T05:02:23.639Z,1002.17
2016-06-07T05:03:23.642Z,1002.22
2016-06-07T05:04:23.660Z,1002.2
2016-06-07T05:06:23.698Z,1002.21
2016-06-07T05:07:23.903Z,1002.21
2016-06-07T05:08:23.703Z,1002.19
2016-06-07T05:09:23.705Z,1002.23
2016-06-07T05:10:23.895Z,1002.23
2016-06-07T05:11:23.914Z,1002.21
2016-06-07T05:12:23.916Z,1002.19
2016-06-07T05:13:23.778Z,1002.18
2016-06-07T05:14:23.734Z,1002.2
2016-06-07T05:15:23.737Z,1002.17
2016-06-07T05:16:24.177Z,1002.17
2016-06-07T05:17:23.757Z,1002.14
2016-06-07T05:18:24.167Z,1002.19
2016-06-07T05:19:23.778Z,1002.15
2016-06-07T05:20:23.781Z,1002.18
2016-06-07T05:21:23.783Z,1002.21
2016-06-07T05:22:24.553Z,1002.21
2016-06-07T05:23:23.805Z,1002.24
2016-06-07T05:24:23.808Z,1002.25
2016-06-07T05:25:23.810Z,1002.25
2016-06-07T05:26:23.829Z,1002.23
2016-06-07T05:27:23.832Z,1002.27
2016-06-07T05:28:23.835Z,1002.25
2016-06-07T05:29:23.852Z,1002.29
2016-06-07T05:30:23.854Z,1002.28
2016-06-07T05:31:23.857Z,1002.3
2016-06-07T05:32:23.860Z,1002.32
2016-06-07T05:33:23.895Z,1002.35
2016-06-07T05:34:23.882Z,1002.35
2016-06-07T05:35:23.901Z,1002.34
2016-06-07T05:36:23.903Z,1002.35
2016-06-07T05:37:23.920Z,1002.35
2016-06-07T05:38:23.924Z,1002.33
2016-06-07T05:39:24.176Z,1002.36
2016-06-07T05:40:23.929Z,1002.36
2016-06-07T05:41:23.978Z,1002.34
2016-06-07T05:43:24.000Z,1002.37
2016-06-07T05:44:23.971Z,1002.35
2016-06-07T05:45:24.130Z,1002.36
2016-06-07T05:46:23.992Z,1002.37
2016-06-07T05:47:23.994Z,1002.39
2016-06-07T05:48:23.997Z,1002.39
2016-06-07T05:49:24.031Z,1002.37
2016-06-07T05:50:24.018Z,1002.41
2016-06-07T05:51:24.021Z,1002.38
2016-06-07T05:52:24.024Z,1002.42
2016-06-07T05:53:24.245Z,1002.44
2016-06-07T05:54:24.045Z,1002.4
2016-06-07T05:55:24.063Z,1002.36
2016-06-07T05:56:24.066Z,1002.42
2016-06-07T05:57:24.085Z,1002.39
2016-06-07T05:58:24.088Z,1002.37
2016-06-07T05:59:24.090Z,1002.42
2016-06-07T06:00:24.092Z,1002.39
2016-06-07T06:01:24.111Z,1002.41
2016-06-07T06:02:24.113Z,1002.44
2016-06-07T06:03:24.147Z,1002.44
2016-06-07T06:04:24.134Z,1002.46
2016-06-07T06:05:24.387Z,1002.45
2016-06-07T06:06:24.155Z,1002.48
2016-06-07T06:07:24.174Z,1002.47
2016-06-07T06:08:24.176Z,1002.44
2016-06-07T06:09:24.382Z,1002.47
2016-06-07T06:10:24.198Z,1002.46
2016-06-07T06:11:24.418Z,1002.52
2016-06-07T06:12:24.625Z,1002.52
2016-06-07T06:13:24.268Z,1002.49
2016-06-07T06:14:24.223Z,1002.47
2016-06-07T06:15:24.226Z,1002.51
2016-06-07T06:16:24.244Z,1002.52
2016-06-07T06:17:24.264Z,1002.57
2016-06-07T06:18:24.484Z,1002.54
2016-06-07T06:19:24.284Z,1002.52
2016-06-07T06:20:24.271Z,1002.5
2016-06-07T06:21:24.274Z,1002.56
2016-06-07T06:22:24.292Z,1002.59
2016-06-07T06:23:24.311Z,1002.6
2016-06-07T06:24:24.313Z,1002.57
2016-06-07T06:25:24.331Z,1002.55
2016-06-07T06:26:24.366Z,1002.53
2016-06-07T06:27:24.352Z,1002.56
2016-06-07T06:28:24.339Z,1002.54
2016-06-07T06:29:24.388Z,1002.52
2016-06-07T06:30:24.580Z,1002.53
2016-06-07T06:31:24.379Z,1002.51
2016-06-07T06:32:24.584Z,1002.53
2016-06-07T06:33:24.603Z,1002.54
2016-06-07T06:34:24.402Z,1002.55
2016-06-07T06:35:24.404Z,1002.55
2016-06-07T06:36:24.407Z,1002.56
2016-06-07T06:37:24.629Z,1002.57
2016-06-07T06:38:24.429Z,1002.61
2016-06-07T06:39:24.462Z,1002.61
2016-06-07T06:40:24.481Z,1002.6
2016-06-07T06:41:24.483Z,1002.61
2016-06-07T06:42:24.471Z,1002.64
2016-06-07T06:43:24.490Z,1002.62
2016-06-07T06:44:24.492Z,1002.66
2016-06-07T06:45:24.509Z,1002.68
2016-06-07T06:46:24.513Z,1002.66
2016-06-07T06:47:24.515Z,1002.7
2016-06-07T06:48:24.533Z,1002.7
2016-06-07T06:49:24.537Z,1002.69
2016-06-07T06:50:24.555Z,1002.7
2016-06-07T06:51:24.605Z,1002.67
2016-06-07T06:52:24.591Z,1002.67
2016-06-07T06:53:24.845Z,1002.64
2016-06-07T06:54:24.628Z,1002.65
2016-06-07T06:56:24.665Z,1002.68
2016-06-07T06:57:24.871Z,1002.7
2016-06-07T06:58:24.670Z,1002.65
2016-06-07T06:59:24.641Z,1002.66
2016-06-07T07:00:24.643Z,1002.69
2016-06-07T07:01:24.663Z,1002.66
2016-06-07T07:02:24.666Z,1002.68
2016-06-07T07:03:24.683Z,1002.67
2016-06-07T07:04:24.686Z,1002.65
2016-06-07T07:05:24.705Z,1002.66
2016-06-07T07:06:24.707Z,1002.67
2016-06-07T07:07:24.726Z,1002.7
2016-06-07T07:08:24.931Z,1002.67
2016-06-07T07:09:24.746Z,1002.65
2016-06-07T07:10:24.765Z,1002.66
2016-06-07T07:11:24.767Z,1002.69
2016-06-07T07:12:24.973Z,1002.69
2016-06-07T07:13:24.851Z,1002.69
2016-06-07T07:14:24.807Z,1002.66
2016-06-07T07:15:24.809Z,1002.68
2016-06-07T07:16:24.812Z,1002.65
2016-06-07T07:17:24.846Z,1002.64
2016-06-07T07:18:25.036Z,1002.69
2016-06-07T07:19:24.883Z,1002.61
2016-06-07T07:20:24.869Z,1002.61
2016-06-07T07:21:24.904Z,1002.64
2016-06-07T07:22:25.109Z,1002.63
2016-06-07T07:23:24.877Z,1002.64
2016-06-07T07:24:24.897Z,1002.64
2016-06-07T07:25:24.899Z,1002.65
2016-06-07T07:26:24.917Z,1002.65
2016-06-07T07:28:24.954Z,1002.64
2016-06-07T07:29:24.957Z,1002.62
2016-06-07T07:30:25.022Z,1002.63
2016-06-07T07:31:24.977Z,1002.61
2016-06-07T07:32:24.980Z,1002.62
2016-06-07T07:33:24.983Z,1002.64
2016-06-07T07:34:25.002Z,1002.63
2016-06-07T07:35:25.019Z,1002.64
2016-06-07T07:36:25.022Z,1002.61
2016-06-07T07:37:26.041Z,1002.65
2016-06-07T07:38:25.059Z,1002.64
2016-06-07T07:39:25.264Z,1002.62
2016-06-07T07:40:25.282Z,1002.64
2016-06-07T07:41:25.083Z,1002.6
2016-06-07T07:42:25.101Z,1002.67
2016-06-07T07:43:25.088Z,1002.67
2016-06-07T07:44:25.106Z,1002.62
2016-06-07T07:45:25.125Z,1002.65
2016-06-07T07:46:25.330Z,1002.63
2016-06-07T07:47:25.131Z,1002.63
2016-06-07T07:48:25.148Z,1002.62
2016-06-07T07:49:25.166Z,1002.66
2016-06-07T07:50:25.372Z,1002.61
2016-06-07T07:51:25.203Z,1002.64
2016-06-07T07:52:25.253Z,1002.63
2016-06-07T07:53:25.427Z,1002.67
2016-06-07T07:54:25.227Z,1002.68
2016-06-07T07:56:25.435Z,1002.67
2016-06-07T07:57:25.266Z,1002.66
2016-06-07T07:58:25.285Z,1002.67
2016-06-07T07:59:25.272Z,1002.7
2016-06-07T08:00:25.493Z,1002.66
2016-06-07T08:01:25.293Z,1002.69
2016-06-07T08:02:25.311Z,1002.66
2016-06-07T08:03:25.313Z,1002.7
2016-06-07T08:04:25.535Z,1002.69
2016-06-07T08:05:25.568Z,1002.68
2016-06-07T08:06:25.352Z,1002.72
2016-06-07T08:07:25.841Z,1002.7
2016-06-07T08:08:25.374Z,1002.72
2016-06-07T08:09:25.393Z,1002.7
2016-06-07T08:10:25.395Z,1002.72
2016-06-07T08:11:25.413Z,1002.73
2016-06-07T08:12:25.448Z,1002.72
2016-06-07T08:13:25.481Z,1002.75
2016-06-07T08:14:25.453Z,1002.74
2016-06-07T08:15:25.673Z,1002.77
2016-06-07T08:16:25.473Z,1002.76
2016-06-07T08:17:25.476Z,1002.74
2016-06-07T08:18:25.526Z,1002.74
2016-06-07T08:19:25.717Z,1002.73
2016-06-07T08:20:25.531Z,1002.72
2016-06-07T08:21:25.533Z,1002.7
2016-06-07T08:22:25.552Z,1002.67
2016-06-07T08:23:25.556Z,1002.69
2016-06-07T08:24:25.792Z,1002.67
2016-06-07T08:25:25.575Z,1002.67
2016-06-07T08:26:25.594Z,1002.68
2016-06-07T08:27:25.613Z,1002.7
2016-06-07T08:28:25.615Z,1002.69
2016-06-07T08:29:25.915Z,1002.68
2016-06-07T08:30:25.636Z,1002.72
2016-06-07T08:31:25.670Z,1002.69
2016-06-07T08:32:25.672Z,1002.72
2016-06-07T08:33:25.675Z,1002.69
2016-06-07T08:34:25.677Z,1002.69
2016-06-07T08:35:25.696Z,1002.71
2016-06-07T08:36:25.716Z,1002.73
2016-06-07T08:37:25.718Z,1002.68
2016-06-07T08:38:25.954Z,1002.71
2016-06-07T08:40:25.787Z,1002.69
2016-06-07T08:41:25.791Z,1002.72
2016-06-07T08:42:25.793Z,1002.73
2016-06-07T08:43:25.796Z,1002.69
2016-06-07T08:44:25.829Z,1002.68
2016-06-07T08:45:25.817Z,1002.68
2016-06-07T08:46:26.117Z,1002.69
2016-06-07T08:47:25.917Z,1002.71
2016-06-07T08:48:25.856Z,1002.68
2016-06-07T08:49:25.875Z,1002.71
2016-06-07T08:50:25.924Z,1002.71
2016-06-07T08:51:25.912Z,1002.72
2016-06-07T08:52:26.148Z,1002.71
2016-06-07T08:53:25.917Z,1002.7
2016-06-07T08:54:25.935Z,1002.73
2016-06-07T08:55:25.953Z,1002.76
2016-06-07T08:56:25.956Z,1002.73
2016-06-07T08:57:25.990Z,1002.75
2016-06-07T08:58:25.992Z,1002.75
2016-06-07T08:59:26.027Z,1002.74
2016-06-07T09:01:26.016Z,1002.79
2016-06-07T09:02:26.035Z,1002.75
2016-06-07T09:03:26.053Z,1002.74
2016-06-07T09:04:26.290Z,1002.78
2016-06-07T09:05:26.090Z,1002.76
2016-06-07T09:06:26.093Z,1002.74
2016-06-07T09:07:26.298Z,1002.77
2016-06-07T09:08:26.473Z,1002.74
2016-06-07T09:09:26.132Z,1002.74
2016-06-07T09:10:26.134Z,1002.7
2016-06-07T09:11:26.153Z,1002.72
2016-06-07T09:12:26.171Z,1002.64
2016-06-07T09:13:26.174Z,1002.64
2016-06-07T09:14:26.192Z,1002.66
2016-06-07T09:15:26.226Z,1002.66
2016-06-07T09:16:26.229Z,1002.69
2016-06-07T09:17:26.231Z,1002.71
2016-06-07T09:18:26.343Z,1002.7
2016-06-07T09:19:26.284Z,1002.67
2016-06-07T09:20:26.286Z,1002.71
2016-06-07T09:21:26.493Z,1002.69
2016-06-07T09:22:26.495Z,1002.64
2016-06-07T09:23:26.309Z,1002.69
2016-06-07T09:24:26.328Z,1002.67
2016-06-07T09:25:26.534Z,1002.7
2016-06-07T09:26:26.350Z,1002.69
2016-06-07T09:27:26.368Z,1002.64
2016-06-07T09:28:26.573Z,1002.7
2016-06-07T09:29:26.404Z,1002.71
2016-06-07T09:30:26.407Z,1002.69
2016-06-07T09:31:26.645Z,1002.71
2016-06-07T09:32:26.663Z,1002.71
2016-06-07T09:33:26.447Z,1002.73
2016-06-07T09:34:26.450Z,1002.74
2016-06-07T09:35:26.671Z,1002.76
2016-06-07T09:36:26.719Z,1002.7
2016-06-07T09:37:26.691Z,1002.68
2016-06-07T09:38:26.522Z,1002.7
2016-06-07T09:39:26.524Z,1002.7
2016-06-07T09:40:26.543Z,1002.7
2016-06-07T09:41:26.546Z,1002.75
2016-06-07T09:42:26.565Z,1002.7
2016-06-07T09:43:26.770Z,1002.7
2016-06-07T09:44:26.632Z,1002.69
2016-06-07T09:45:26.603Z,1002.69
2016-06-07T09:46:26.622Z,1002.69
2016-06-07T09:47:26.656Z,1002.65
2016-06-07T09:48:26.862Z,1002.68
2016-06-07T09:50:26.679Z,1002.7
2016-06-07T09:51:26.682Z,1002.65
2016-06-07T09:52:26.701Z,1002.65
2016-06-07T09:53:26.828Z,1002.66
2016-06-07T09:54:26.956Z,1002.61
2016-06-07T09:55:26.943Z,1002.64
2016-06-07T09:56:26.758Z,1002.63
2016-06-07T09:57:26.761Z,1002.62
2016-06-07T09:58:26.779Z,1002.59
2016-06-07T09:59:26.797Z,1002.63
2016-06-07T10:00:27.019Z,1002.6
2016-06-07T10:01:26.819Z,1002.62
2016-06-07T10:02:26.852Z,1002.6
2016-06-07T10:04:26.874Z,1002.59
2016-06-07T10:05:26.877Z,1002.62
2016-06-07T10:06:26.894Z,1002.57
2016-06-07T10:07:26.928Z,1002.62
2016-06-07T10:08:26.963Z,1002.58
2016-06-07T10:10:26.952Z,1002.62
2016-06-07T10:11:26.970Z,1002.59
2016-06-07T10:12:26.973Z,1002.57
2016-06-07T10:13:27.241Z,1002.58
2016-06-07T10:14:27.010Z,1002.5
2016-06-07T10:15:27.013Z,1002.55
2016-06-07T10:17:27.049Z,1002.59
2016-06-07T10:18:37.130Z,1002.58
2016-06-07T10:20:27.087Z,1002.59
2016-06-07T10:21:27.105Z,1002.61
2016-06-07T10:22:27.123Z,1002.6
2016-06-07T10:23:27.345Z,1002.64
2016-06-07T10:24:27.160Z,1002.63
2016-06-07T10:25:27.162Z,1002.62
2016-06-07T10:26:27.197Z,1002.62
2016-06-07T10:27:27.184Z,1002.6
2016-06-07T10:28:27.437Z,1002.55
2016-06-07T10:29:27.235Z,1002.59
2016-06-07T10:30:27.238Z,1002.55
2016-06-07T10:31:27.272Z,1002.55
2016-06-07T10:32:27.276Z,1002.62
2016-06-07T10:33:27.481Z,1002.6
2016-06-07T10:34:27.328Z,1002.61
2016-06-07T10:35:27.315Z,1002.58
2016-06-07T10:36:27.333Z,1002.62
2016-06-07T10:37:27.367Z,1002.6
2016-06-07T10:38:27.478Z,1002.58
2016-06-07T10:39:27.373Z,1002.6
2016-06-07T10:40:27.390Z,1002.56
2016-06-07T10:41:27.409Z,1002.54
2016-06-07T10:42:27.428Z,1002.53
2016-06-07T10:44:27.667Z,1002.54
2016-06-07T10:45:27.467Z,1002.51
2016-06-07T10:46:27.485Z,1002.53
2016-06-07T10:47:27.503Z,1002.51
2016-06-07T10:48:27.755Z,1002.54
2016-06-07T10:49:27.744Z,1002.51
2016-06-07T10:52:27.579Z,1002.51
2016-06-07T10:53:27.597Z,1002.49
2016-06-07T10:54:27.615Z,1002.51
2016-06-07T10:55:27.850Z,1002.5
2016-06-07T10:56:27.665Z,1002.48
2016-06-07T10:57:27.697Z,1002.48
2016-06-07T10:58:27.731Z,1002.48
2016-06-07T10:59:27.968Z,1002.47
2016-06-07T11:00:27.790Z,1002.4
2016-06-07T11:01:27.813Z,1002.4
2016-06-07T11:03:27.845Z,1002.42
2016-06-07T11:04:27.869Z,1002.39
2016-06-07T11:05:27.890Z,1002.41
2016-06-07T11:06:27.909Z,1002.44
2016-06-07T11:07:27.930Z,1002.47
2016-06-07T11:08:28.154Z,1002.48
2016-06-07T11:09:27.971Z,1002.46
2016-06-07T11:10:27.990Z,1002.45
2016-06-07T11:11:28.008Z,1002.49
2016-06-07T11:12:28.028Z,1002.49
2016-06-07T11:13:28.266Z,1002.52
2016-06-07T11:14:28.050Z,1002.47
2016-06-07T11:15:28.069Z,1002.47
2016-06-07T11:16:28.291Z,1002.49
2016-06-07T11:17:28.122Z,1002.49
2016-06-07T11:18:28.125Z,1002.45
2016-06-07T11:19:28.159Z,1002.45
2016-06-07T11:20:28.162Z,1002.43
2016-06-07T11:21:28.197Z,1002.43
2016-06-07T11:22:28.199Z,1002.43
2016-06-07T11:23:28.217Z,1002.46
2016-06-07T11:24:28.235Z,1002.47
2016-06-07T11:25:28.238Z,1002.5
2016-06-07T11:26:28.272Z,1002.49
2016-06-07T11:27:28.290Z,1002.47
2016-06-07T11:28:28.294Z,1002.45
2016-06-07T11:29:28.343Z,1002.45
2016-06-07T11:30:28.330Z,1002.44
2016-06-07T11:31:28.363Z,1002.47
2016-06-07T11:32:28.586Z,1002.39
2016-06-07T11:33:28.385Z,1002.42
2016-06-07T11:34:28.591Z,1002.4
2016-06-07T11:35:28.421Z,1002.41
2016-06-07T11:36:28.643Z,1002.42
2016-06-07T11:37:28.473Z,1002.43
2016-06-07T11:38:28.460Z,1002.39
2016-06-07T11:39:28.479Z,1002.38
2016-06-07T11:40:28.528Z,1002.35
2016-06-07T11:42:28.534Z,1002.35
2016-06-07T11:43:28.552Z,1002.35
2016-06-07T11:44:28.555Z,1002.38
2016-06-07T11:45:28.573Z,1002.35
2016-06-07T11:46:28.623Z,1002.34
2016-06-07T11:47:28.609Z,1002.3
2016-06-07T11:49:28.647Z,1002.29
2016-06-07T11:50:28.665Z,1002.3
2016-06-07T11:52:28.905Z,1002.3
2016-06-07T11:53:28.720Z,1002.31
2016-06-07T11:54:28.722Z,1002.27
2016-06-07T11:55:28.741Z,1002.27
2016-06-07T11:56:28.758Z,1002.2
2016-06-07T11:57:28.778Z,1002.22
2016-06-07T11:58:28.827Z,1002.21
2016-06-07T11:59:28.830Z,1002.13
2016-06-07T12:00:28.833Z,1002.15
2016-06-07T12:01:28.866Z,1002.16
2016-06-07T12:02:29.103Z,1002.15
2016-06-07T12:03:29.074Z,1002.18
2016-06-07T12:04:28.905Z,1002.16
2016-06-07T12:05:28.908Z,1002.15
2016-06-07T12:06:28.943Z,1002.11
2016-06-07T12:07:28.946Z,1002.1
2016-06-07T12:08:29.291Z,1002.06
2016-06-07T12:09:28.997Z,1002.04
2016-06-07T12:10:28.999Z,1002.04
2016-06-07T12:11:29.018Z,1002.06
2016-06-07T12:12:29.239Z,1002.05
2016-06-07T12:13:29.054Z,1002.01
2016-06-07T12:14:29.057Z,1001.96
2016-06-07T12:15:29.076Z,1001.98
2016-06-07T12:16:29.095Z,1002.01
2016-06-07T12:17:29.112Z,1001.93
2016-06-07T12:18:29.146Z,1001.92
2016-06-07T12:19:29.165Z,1001.95
2016-06-07T12:20:29.183Z,1001.93
2016-06-07T12:21:29.186Z,1001.95
2016-06-07T12:22:29.220Z,1001.95
2016-06-07T12:23:29.223Z,1001.94
2016-06-07T12:24:29.241Z,1001.97
2016-06-07T12:25:29.259Z,1002.04
2016-06-07T12:26:29.262Z,1001.97
2016-06-07T12:27:29.295Z,1001.97
2016-06-07T12:28:29.298Z,1001.99
2016-06-07T12:29:29.550Z,1001.96
2016-06-07T12:30:29.350Z,1001.97
2016-06-07T12:31:29.369Z,1001.96
2016-06-07T12:32:29.388Z,1001.94
2016-06-07T12:33:29.390Z,1001.94
2016-06-07T12:34:30.018Z,1001.94
2016-06-07T12:35:29.426Z,1001.9
2016-06-07T12:36:29.444Z,1001.9
2016-06-07T12:37:29.479Z,1001.93